메인 페이지
METAR-TAF:

METAR-TAF

공항 :

Palm Beach International Airport

웨스트팜비치, 플로리다, 미국

위도: 26-41-05N, 경도: 080-05-58W, 고도: 5m

현재 날씨관측

예보는 29분 전, 21:53시(UTC)에 발표되었습니다.
17kt, 순간 최대 풍속 24kt
온도 33°C
습도 36%
기압 1008 hPa
시정: 16.1km
고도 5500ft 상공 구름 보통
고도 10000ft 상공 구름 보통
고도 25000ft 상공 구름 많음

METAR: KPBI 312153Z 26017G24KT 10SM SCT055 SCT100 BKN250 33/16 A2977 RMK AO2 PK WND 27026/2117 SLP081 T03280161

시각: 18:22 (22:22 UTC)

예보

예보는 1 시간 26분 전, 20:56시(UTC)에 발표되었습니다.
예보 대상 시간: 31일 21시부터 01일 18시까지 (UTC)
남서13kt, 순간 최대 풍속 23kt
시정: 10km
고도 5000ft 상공 구름 보통
고도 25000ft 상공 구름 보통
01일 0000시부터 (UTC)
서남서9kt
시정: 10km
고도 3000ft 상공 구름 보통
고도 25000ft 상공 구름 많음
01일 0600시부터 (UTC)
서남서10kt
시정: 10km
고도 1500ft 상공 구름 보통
고도 2500ft 상공 구름 많음
시계 내 소나기
01일 1200시부터 (UTC)
서북서13kt
시정: 10km
고도 2500ft 상공 구름 보통
고도 25000ft 상공 구름 보통

TAF: KPBI 312056Z 3121/0118 22013G23KT P6SM SCT050 SCT250 FM010000 24009KT P6SM SCT030 BKN250 FM010600 25010KT P6SM VCSH SCT015 BKN025 FM011200 30013KT P6SM SCT025 SCT250

4,000개 이상의 공항 관측 자료 및 예보 (METAR 및 TAF 보고).

지도상에서 검색 가능한 기상관측소가 노란 점과 빨간 점으로 표시되어 있습니다.

기상관측소 명을 보려면 표시 위로 마우스를 이동하세요.

날씨 관측과 예보를 보려면 클릭하세요.

지도 변경 : 확대하려면 엑스 표시가 있는 녹색 버튼, 축소하려면 빼기 표시가 있는 녹색 버튼, 다음 페이지의 지도를 보려면 녹색 화살표를 클릭하세요.


METAR-TAF: